Time;durP1;ratioP1;P1;durP2;ratioP2;P2;SDS_P1;SDS_P2;PMS_P1;PMS_P2;Temp;Humidity;BMP_temperature;BMP_pressure;BME280_temperature;BME280_humidity;BME280_pressure;Samples;Min_cycle;Max_cycle;Signal;HPM_P1;HPM_P2
2021/09/24 07:26:35;;;;;;;22.85;13.68;;;10.90;99.90;;;;;;6124517;23;20502;-96
2021/09/24 07:35:12;;;;;;;23.38;13.68;;;11.00;99.90;;;;;;6129528;23;20784;-94
2021/09/24 07:37:52;;;;;;;21.13;13.77;;;11.10;99.90;;;;;;6103916;23;20987;-94
2021/09/24 07:44:02;;;;;;;17.27;13.25;;;11.10;99.90;;;;;;6193869;23;20429;-94
2021/09/24 07:46:55;;;;;;;22.37;14.63;;;11.10;99.90;;;;;;6185694;23;20410;-95
2021/09/24 07:50:31;;;;;;;21.80;13.50;;;11.00;99.90;;;;;;6191297;23;20391;-96
2021/09/24 07:53:15;;;;;;;23.83;13.73;;;11.10;99.90;;;;;;6211732;23;20376;-95
2021/09/24 07:56:27;;;;;;;19.67;13.82;;;11.00;99.90;;;;;;6191308;23;20384;-94
2021/09/24 07:59:00;;;;;;;22.67;14.18;;;11.10;99.90;;;;;;6192692;23;20388;-94
2021/09/24 08:02:10;;;;;;;19.98;14.02;;;11.00;99.90;;;;;;6191314;23;20375;-96
2021/09/24 08:05:09;;;;;;;;;;;;;;;;;;;;;
2021/09/24 08:08:23;;;;;;;18.20;13.60;;;11.10;99.90;;;;;;6217745;23;20424;-95
2021/09/24 08:15:17;;;;;;;18.05;14.10;;;11.10;99.90;;;;;;6017515;23;20440;-96
2021/09/24 08:18:27;;;;;;;25.58;13.98;;;11.20;99.90;;;;;;6160787;23;20381;-95
2021/09/24 08:21:26;;;;;;;20.40;14.40;;;11.20;99.90;;;;;;6154674;23;20413;-94
2021/09/24 08:23:56;;;;;;;24.65;14.40;;;11.20;99.90;;;;;;6166030;23;20393;-95
2021/09/24 08:26:52;;;;;;;20.48;14.35;;;11.20;99.90;;;;;;6148185;23;20412;-96
2021/09/24 08:50:25;;;;;;;21.10;13.80;;;11.90;99.90;;;;;;6159824;23;20385;-92
2021/09/24 10:10:19;;;;;;;19.13;12.50;;;12.80;99.90;;;;;;6162508;23;20403;-96
2021/09/24 13:48:58;;;;;;;12.30;7.00;;;14.80;99.90;;;;;;6201522;22;20391;-95
2021/09/24 13:59:49;;;;;;;11.05;7.38;;;15.00;99.90;;;;;;6164173;23;20472;-94
2021/09/24 14:07:49;;;;;;;13.18;6.38;;;15.10;99.90;;;;;;6195295;22;20469;-94
2021/09/24 14:10:41;;;;;;;10.10;6.17;;;15.00;99.90;;;;;;6125258;23;20382;-94
2021/09/24 14:13:22;;;;;;;8.65;6.13;;;15.00;99.90;;;;;;6142624;23;20395;-94
2021/09/24 14:15:52;;;;;;;9.20;6.15;;;14.90;99.90;;;;;;6157985;23;20401;-94
2021/09/24 14:21:01;;;;;;;8.45;6.22;;;14.90;99.90;;;;;;6186854;23;20490;-92
2021/09/24 14:26:33;;;;;;;9.45;6.03;;;14.90;99.90;;;;;;6148701;23;20419;-94
2021/09/24 14:29:00;;;;;;;8.43;5.97;;;14.90;99.90;;;;;;6108858;23;20396;-95
2021/09/24 14:32:12;;;;;;;9.70;5.55;;;15.10;99.90;;;;;;6107623;23;20430;-96
2021/09/24 14:35:05;;;;;;;8.20;5.55;;;15.90;99.90;;;;;;6142531;23;20404;-95
2021/09/24 14:37:35;;;;;;;8.50;5.35;;;16.60;99.90;;;;;;6045431;23;20401;-93
2021/09/24 14:40:04;;;;;;;11.27;5.40;;;16.60;99.90;;;;;;6025797;23;20397;-94
2021/09/24 14:43:04;;;;;;;9.90;5.18;;;16.60;99.90;;;;;;6151692;23;20399;-95
2021/09/24 14:48:38;;;;;;;6.97;5.25;;;17.40;99.90;;;;;;6163935;23;20461;-94
2021/09/24 14:51:15;;;;;;;7.70;4.80;;;18.10;99.90;;;;;;6152144;23;20379;-96
2021/09/24 14:53:42;;;;;;;8.90;4.18;;;17.90;99.90;;;;;;6157212;23;20418;-94
2021/09/24 14:56:11;;;;;;;7.30;4.40;;;18.20;99.90;;;;;;6173761;23;20405;-95
2021/09/24 14:59:32;;;;;;;7.22;4.28;;;18.80;99.90;;;;;;6184787;23;20393;-95
2021/09/24 15:05:04;;;;;;;7.63;4.33;;;19.30;99.90;;;;;;6133009;23;20399;-96
2021/09/24 15:07:37;;;;;;;7.10;4.50;;;19.30;99.90;;;;;;6134715;23;20409;-94
2021/09/24 15:10:07;;;;;;;6.00;3.90;;;19.30;99.90;;;;;;6133307;23;20393;-94
2021/09/24 15:12:35;;;;;;;7.10;3.97;;;19.10;99.90;;;;;;6142571;23;20410;-96
2021/09/24 15:22:04;;;;;;;7.30;4.30;;;19.40;99.90;;;;;;6193335;23;20389;-95
2021/09/24 15:28:19;;;;;;;9.93;4.07;;;19.20;99.90;;;;;;6199862;23;20399;-95
2021/09/24 15:31:04;;;;;;;7.53;4.35;;;19.20;99.90;;;;;;6196494;23;20391;-95
2021/09/24 15:33:37;;;;;;;6.93;4.32;;;19.20;99.90;;;;;;6221263;23;20388;-94
2021/09/24 15:36:12;;;;;;;6.65;4.30;;;19.30;99.90;;;;;;6193909;23;20392;-94
2021/09/24 15:38:39;;;;;;;6.35;4.20;;;19.40;99.90;;;;;;6195237;23;20387;-94
2021/09/24 15:41:22;;;;;;;8.02;4.43;;;19.30;99.90;;;;;;6195964;23;20887;-94
2021/09/24 15:44:16;;;;;;;7.90;4.38;;;19.20;99.90;;;;;;6196450;23;20454;-94
2021/09/24 15:46:43;;;;;;;7.75;4.57;;;19.00;99.90;;;;;;6195924;23;20434;-94
2021/09/24 15:49:12;;;;;;;6.73;4.40;;;18.70;99.90;;;;;;6177492;23;20432;-94
2021/09/24 15:51:44;;;;;;;8.93;4.68;;;18.70;99.90;;;;;;6162237;23;20402;-95
2021/09/24 15:54:38;;;;;;;7.67;5.10;;;18.60;99.90;;;;;;6177414;23;20408;-95
2021/09/24 15:57:08;;;;;;;9.25;4.57;;;18.40;99.90;;;;;;6167702;23;20405;-95
2021/09/24 15:59:36;;;;;;;8.25;4.22;;;18.10;99.90;;;;;;6167813;23;20393;-94
2021/09/24 16:02:11;;;;;;;6.90;4.72;;;18.00;99.90;;;;;;6168221;23;20399;-94
2021/09/24 16:04:39;;;;;;;7.70;4.25;;;17.90;99.90;;;;;;6168324;23;20389;-95
2021/09/24 16:07:06;;;;;;;9.13;4.53;;;17.80;99.90;;;;;;6183334;23;20409;-95
2021/09/24 16:09:55;;;;;;;8.80;5.07;;;17.60;99.90;;;;;;6182891;23;20841;-95
2021/09/24 16:12:31;;;;;;;7.55;4.75;;;17.40;99.90;;;;;;6199193;23;20449;-94
2021/09/24 16:15:01;;;;;;;8.85;5.35;;;17.10;99.90;;;;;;6197492;23;20391;-95
2021/09/24 16:19:59;;;;;;;12.20;5.97;;;16.60;99.90;;;;;;6222350;23;20395;-95
2021/09/24 16:22:33;;;;;;;8.63;5.47;;;16.20;99.90;;;;;;6197263;23;20402;-95
2021/09/24 16:25:14;;;;;;;9.48;5.80;;;15.90;99.90;;;;;;6196392;23;20482;-95
2021/09/24 16:27:42;;;;;;;9.65;5.72;;;15.80;99.90;;;;;;6198209;23;20407;-95
2021/09/24 16:30:14;;;;;;;13.13;5.53;;;15.50;99.90;;;;;;6199392;23;20403;-95
2021/09/24 16:32:44;;;;;;;9.77;6.00;;;15.30;99.90;;;;;;6200885;23;20375;-96
2021/09/24 16:35:13;;;;;;;12.35;6.43;;;15.10;99.90;;;;;;6200988;23;20391;-95
2021/09/24 16:37:49;;;;;;;10.10;6.37;;;15.00;99.90;;;;;;6219203;23;20399;-94
2021/09/24 16:40:21;;;;;;;9.43;6.28;;;14.80;99.90;;;;;;6217228;23;20371;-95
2021/09/24 16:42:51;;;;;;;12.05;6.70;;;14.70;99.90;;;;;;6211548;23;20384;-94
2021/09/24 16:45:21;;;;;;;11.83;6.80;;;14.60;99.90;;;;;;6203257;23;20446;-95
2021/09/24 16:47:48;;;;;;;11.55;6.32;;;14.50;99.90;;;;;;6192337;23;20422;-96
2021/09/24 16:50:16;;;;;;;10.25;7.05;;;14.30;99.90;;;;;;6193784;23;20418;-94
2021/09/24 16:52:44;;;;;;;11.68;7.07;;;14.20;99.90;;;;;;6200549;23;20395;-95
2021/09/24 16:55:13;;;;;;;10.43;7.20;;;14.10;99.90;;;;;;6195274;23;20899;-93
2021/09/24 16:57:40;;;;;;;13.05;7.28;;;14.00;99.90;;;;;;6193313;23;20404;-94
2021/09/24 17:00:11;;;;;;;11.55;6.97;;;13.80;99.90;;;;;;6197012;23;20484;-94
2021/09/24 17:02:39;;;;;;;13.82;7.32;;;13.70;99.90;;;;;;6196617;23;20391;-95
2021/09/24 17:05:10;;;;;;;13.80;7.55;;;13.60;99.90;;;;;;6199280;23;20392;-94
2021/09/24 17:07:37;;;;;;;12.40;7.50;;;13.60;99.90;;;;;;6197526;23;20404;-96
2021/09/24 17:10:09;;;;;;;11.35;7.63;;;13.60;99.90;;;;;;6195516;23;20392;-94
2021/09/24 17:12:36;;;;;;;13.98;7.90;;;13.50;99.90;;;;;;6196485;23;20388;-94
2021/09/24 17:15:06;;;;;;;10.45;7.90;;;13.40;99.90;;;;;;6188687;23;20397;-94
2021/09/24 17:17:35;;;;;;;17.92;9.18;;;13.30;99.90;;;;;;6193702;23;20547;-93
2021/09/24 17:20:08;;;;;;;15.18;9.57;;;13.20;99.90;;;;;;6135769;23;20391;-94
2021/09/24 17:22:52;;;;;;;17.43;10.80;;;13.20;99.90;;;;;;6139369;23;20382;-94
2021/09/24 17:25:24;;;;;;;14.57;11.05;;;13.10;99.90;;;;;;6139878;23;20409;-95
2021/09/24 17:31:12;;;;;;;18.27;10.02;;;12.80;99.90;;;;;;6182788;23;20476;-93
2021/09/24 17:35:00;;;;;;;16.92;12.23;;;12.70;99.90;;;;;;6166335;23;20409;-96
2021/09/24 17:38:37;;;;;;;15.50;11.15;;;12.30;99.90;;;;;;6189651;23;20484;-96
2021/09/24 17:41:47;;;;;;;19.85;11.13;;;12.20;99.90;;;;;;6141615;23;20385;-95
2021/09/24 17:44:45;;;;;;;16.58;8.93;;;12.10;99.90;;;;;;6162059;23;20425;-95
2021/09/24 17:48:51;;;;;;;15.10;11.25;;;12.10;99.90;;;;;;6166232;23;20483;-94
2021/09/24 17:51:57;;;;;;;17.97;11.73;;;11.80;99.90;;;;;;6072414;23;20398;-94
2021/09/24 17:57:32;;;;;;;15.23;11.05;;;11.60;99.90;;;;;;6165492;23;20521;-94
2021/09/24 18:00:27;;;;;;;15.00;11.60;;;11.60;99.90;;;;;;6136063;23;20425;-94
2021/09/24 18:03:02;;;;;;;18.17;11.70;;;11.70;99.90;;;;;;6133325;23;21024;-94
2021/09/24 18:05:46;;;;;;;16.98;11.18;;;11.80;99.90;;;;;;6120268;23;20382;-96
2021/09/24 18:08:14;;;;;;;14.75;10.52;;;12.00;99.90;;;;;;6158823;23;20413;-95
2021/09/24 18:10:46;;;;;;;15.52;11.23;;;12.00;99.90;;;;;;6155637;23;20428;-94
2021/09/24 18:17:09;;;;;;;16.55;9.95;;;12.20;99.90;;;;;;6190033;23;20379;-94
2021/09/24 18:42:44;;;;;;;15.50;11.20;;;11.80;99.90;;;;;;6144582;22;20394;-95
2021/09/24 19:20:06;;;;;;;;;;;;;;;;;;;;;
2021/09/24 20:52:01;;;;;;;17.45;13.00;;;11.20;99.90;;;;;;6194500;23;20460;-95
2021/09/24 20:54:31;;;;;;;25.70;15.20;;;11.10;99.90;;;;;;6165256;23;20392;-94
2021/09/24 20:57:02;;;;;;;20.98;13.20;;;11.20;99.90;;;;;;6166539;23;20476;-95
2021/09/24 20:59:35;;;;;;;17.67;13.57;;;11.20;99.90;;;;;;6164758;23;20424;-95
2021/09/24 21:02:11;;;;;;;24.42;14.65;;;11.20;99.90;;;;;;6165342;23;20381;-95
2021/09/24 21:04:50;;;;;;;23.92;13.60;;;11.20;99.90;;;;;;6164261;23;20385;-94
2021/09/24 21:07:57;;;;;;;21.73;13.48;;;11.00;99.90;;;;;;6158487;23;20413;-96
2021/09/24 21:11:29;;;;;;;19.17;13.00;;;10.80;99.90;;;;;;6161042;23;20377;-94
2021/09/24 21:14:40;;;;;;;21.13;13.82;;;10.70;99.90;;;;;;6165082;23;20397;-96
2021/09/24 21:18:01;;;;;;;20.58;12.57;;;11.00;99.90;;;;;;6163472;23;20473;-96
2021/09/24 21:21:33;;;;;;;17.67;12.20;;;11.10;99.90;;;;;;6109638;23;21010;-95
2021/09/24 21:24:51;;;;;;;21.07;14.23;;;11.20;99.90;;;;;;6037456;23;20488;-96
2021/09/24 21:31:48;;;;;;;15.15;11.48;;;11.20;99.90;;;;;;6010075;23;20390;-94
2021/09/24 21:38:17;;;;;;;23.13;13.45;;;11.10;99.90;;;;;;5870269;24;20499;-95
2021/09/24 21:41:35;;;;;;;22.03;13.80;;;10.80;99.90;;;;;;5871391;24;20423;-94
2021/09/24 21:45:09;;;;;;;17.58;11.73;;;10.60;99.90;;;;;;5893949;23;20425;-96
2021/09/24 21:48:34;;;;;;;21.52;14.13;;;10.40;99.90;;;;;;6112323;23;20408;-96
2021/09/24 21:55:01;;;;;;;19.55;11.90;;;10.50;99.90;;;;;;6131388;23;20423;-96
2021/09/24 21:58:14;;;;;;;17.02;10.23;;;10.50;99.90;;;;;;6058884;23;20395;-95
2021/09/24 22:01:01;;;;;;;18.42;11.35;;;10.60;99.90;;;;;;6135398;23;20447;-96
2021/09/24 22:04:09;;;;;;;13.60;9.83;;;10.50;99.90;;;;;;6148169;23;20380;-96
2021/09/24 22:07:25;;;;;;;18.75;11.35;;;10.60;99.90;;;;;;6083731;23;20424;-96
2021/09/24 22:13:30;;;;;;;;;;;;;;;;;;;;;
2021/09/24 22:31:38;;;;;;;;;;;;;;;;;;;;;
2021/09/24 23:10:29;;;;;;;24.30;16.85;;;9.80;99.90;;;;;;6215690;23;20411;-96
2021/09/24 23:35:42;;;;;;;;;;;;;;;;;;;;;
2021/09/24 23:38:49;;;;;;;22.85;15.57;;;10.30;99.90;;;;;;6135689;23;20418;-96
2021/09/24 23:48:46;;;;;;;39.17;24.08;;;10.00;99.90;;;;;;6218257;23;20387;-96
2021/09/24 23:56:05;;;;;;;48.80;28.00;;;10.10;99.90;;;;;;6220256;23;20454;-96
